Airfield :
LOGIN :

Register | Disclaimer

   EN    FR    IT 

 










Legend :    VFR   Marginal VFR   IFR   Intensive IFR   Very Intensive IFR
Visi :
Ceiling :
>= 8 km
>= 3000ft
5 to 8 km
1000 to 3000 ft
1500m to 5 km
500 to 1000 ft
800 to 1500m
200 to 500 ft
< 800m
< 200 ft
Symbols :   Thunderstorms  Fog  Heavy snow  Heavy precipitations  Wind > 20 kt
SIGMETs :     Misc.  Thunderstorms  Icing  Turbulence  Mountain Waves  Volcanic Ashes







- Airport Elevation : 177 ft
- IATA code : AYT


LTAI - Antalya

CURRENT METAR :
  • 161050Z VRB05KT 9999 FEW030CB BKN200 16/01 Q1017 NOSIG

EXPIRED METARs :
  • 161020Z 08004KT 040V210 9999 FEW030 BKN200 16/02 Q1017 BECMG TL1200 20012KT RMK RWY18C VRB05KT RWY36R 08005KT 030V170 RWY18L VRB03KT
  • 160950Z 05005KT 010V080 9999 FEW030 BKN200 16/M00 Q1017 NOSIG RMK RWY18C 02004KT 320V070 RWY36R 07005KT 010V110 RWY18L 07004KT 040V110
  • 160920Z 02006KT 340V050 9999 FEW030 BKN200 15/M00 Q1017 NOSIG RMK RWY18C 01005KT 330V030 RWY36R 36005KT 340V040 RWY18L 01004KT 340V050
  • 160850Z 35011KT 9999 FEW030 BKN200 15/01 Q1017 NOSIG RMK RWY18C 35010KT RWY36R 34010KT RWY18L 34010KT

TAF TAF LTAI
Valid from the 16 at 12:00 until the 17 at 12:00 UTC


161040Z 1612/1712 17010KT 9999 FEW030 BKN200
BECMG 1615/1619 34007KT CAVOK
BECMG 1710/1712 18010KT FEW030
No reported NOTAMs for that airfield.



MET'MAP, your aeronautical weather chart ! - Copyright ORBIFLY December 2007 - Disclaimer

ORBIFLY MET'MAP TEAM :

Programming & Development : Alexandra Zaïnal
Concept & Development : Baudouin d'Aumeries
Co-Development & Prog : Marc-Olivier Méhu
Technical & hardware support : Manuel Goepfert

Contact : metmap@orbifly.com




SOURCES & CREDITS :

   NOAA